Time;durP1;ratioP1;P1;durP2;ratioP2;P2;SDS_P1;SDS_P2;PMS_P1;PMS_P2;Temp;Humidity;BMP_temperature;BMP_pressure;BME280_temperature;BME280_humidity;BME280_pressure;Samples;Min_cycle;Max_cycle;Signal;HPM_P1;HPM_P2
2021/08/18 00:02:25;;;;;;;10.15;7.47;;;;;;;23.47;92.40;99643.72;2625324;54;20029;-69
2021/08/18 00:04:53;;;;;;;8.82;7.00;;;;;;;23.48;92.58;99652.31;2625247;39;20435;-70
2021/08/18 00:07:19;;;;;;;8.40;7.05;;;;;;;23.51;92.43;99641.69;2624846;54;20629;-69
2021/08/18 00:09:46;;;;;;;10.15;6.97;;;;;;;23.40;93.02;99642.59;2625006;47;20017;-69
2021/08/18 00:12:12;;;;;;;9.02;7.00;;;;;;;23.12;95.25;99644.13;2624662;54;20011;-71
2021/08/18 00:14:38;;;;;;;12.82;6.95;;;;;;;23.42;93.34;99639.88;2624149;54;20134;-70
2021/08/18 00:17:04;;;;;;;10.38;7.50;;;;;;;23.50;92.76;99638.25;2624357;54;20602;-69
2021/08/18 00:19:30;;;;;;;11.55;7.57;;;;;;;23.76;91.64;99630.78;2624929;54;20014;-70
2021/08/18 00:21:56;;;;;;;11.23;7.57;;;;;;;23.23;95.15;99617.25;2626085;54;20574;-69
2021/08/18 00:24:28;;;;;;;10.50;7.97;;;;;;;23.00;95.90;99614.03;2628341;39;20065;-70
2021/08/18 00:26:54;;;;;;;11.13;7.93;;;;;;;23.20;94.38;99618.34;2626225;54;20010;-69
2021/08/18 00:29:21;;;;;;;9.77;7.47;;;;;;;22.80;95.69;99601.13;2632808;39;20520;-70
2021/08/18 00:31:47;;;;;;;9.50;7.53;;;;;;;22.76;95.48;99605.72;2628198;54;20263;-70
2021/08/18 00:34:13;;;;;;;11.00;8.20;;;;;;;22.97;93.61;99597.91;2627334;54;20017;-72
2021/08/18 00:36:39;;;;;;;13.75;7.57;;;;;;;23.48;90.60;99609.03;2625765;47;20026;-71
2021/08/18 00:39:05;;;;;;;10.68;7.47;;;;;;;23.31;91.36;99624.38;2626823;54;20038;-70
2021/08/18 00:41:31;;;;;;;8.50;7.45;;;;;;;23.48;90.46;99632.38;2626902;54;20013;-70
2021/08/18 00:43:58;;;;;;;11.27;7.40;;;;;;;23.53;89.59;99643.16;2626723;54;20003;-69
2021/08/18 00:46:24;;;;;;;10.05;7.57;;;;;;;23.39;90.29;99646.16;2626803;54;20002;-70
2021/08/18 00:48:50;;;;;;;10.52;7.60;;;;;;;23.65;89.13;99660.28;2626041;54;20018;-69
2021/08/18 00:51:16;;;;;;;10.68;7.38;;;;;;;23.67;89.39;99666.16;2625450;47;20003;-70
2021/08/18 00:53:42;;;;;;;10.27;7.47;;;;;;;23.59;89.61;99657.41;2627641;39;20422;-69
2021/08/18 00:56:11;;;;;;;12.45;7.78;;;;;;;23.35;92.68;99651.75;2625433;54;20017;-71
2021/08/18 00:58:37;;;;;;;9.80;7.90;;;;;;;23.27;92.97;99649.78;2624271;54;20003;-70
2021/08/18 01:01:03;;;;;;;8.57;7.68;;;;;;;23.78;89.62;99647.06;2624177;54;20049;-70
2021/08/18 01:03:30;;;;;;;10.23;7.03;;;;;;;23.60;90.42;99653.84;2625090;54;20007;-69
2021/08/18 01:05:56;;;;;;;11.73;7.78;;;;;;;23.16;93.64;99635.13;2625168;47;20546;-73
2021/08/18 01:08:23;;;;;;;11.70;8.20;;;;;;;23.36;92.80;99630.84;2625366;54;20007;-68
2021/08/18 01:10:50;;;;;;;11.23;8.50;;;;;;;23.25;93.68;99628.34;2625972;54;20015;-70
2021/08/18 01:13:16;;;;;;;9.55;7.95;;;;;;;23.57;91.49;99626.38;2625790;54;20075;-71
2021/08/18 01:15:42;;;;;;;9.95;7.93;;;;;;;23.59;91.41;99621.88;2625733;54;20091;-70
2021/08/18 01:18:08;;;;;;;11.25;7.95;;;;;;;23.56;91.58;99622.16;2625296;54;20062;-67
2021/08/18 01:20:39;;;;;;;9.65;7.93;;;;;;;23.53;92.47;99625.00;2625866;47;20015;-68
2021/08/18 01:23:08;;;;;;;12.73;8.68;;;;;;;23.45;93.05;99622.28;2625996;54;20003;-68
2021/08/18 01:25:39;;;;;;;9.50;7.75;;;;;;;23.63;91.86;99615.47;2626138;54;20011;-69
2021/08/18 01:28:07;;;;;;;12.18;8.13;;;;;;;23.58;91.65;99609.88;2625548;54;20003;-68
2021/08/18 01:30:34;;;;;;;9.65;8.13;;;;;;;23.28;93.80;99602.94;2625138;47;20007;-70
2021/08/18 01:33:05;;;;;;;11.60;8.90;;;;;;;23.19;93.75;99605.50;2626421;39;20441;-67
2021/08/18 01:35:35;;;;;;;12.10;8.60;;;;;;;23.00;94.98;99595.03;2625494;47;20098;-68
2021/08/18 01:40:43;;;;;;;12.70;8.70;;;;;;;22.95;96.76;99594.63;2627181;39;20450;-74
2021/08/18 01:43:10;;;;;;;12.77;8.65;;;;;;;23.29;94.23;99588.19;2627070;47;20033;-71
2021/08/18 01:45:42;;;;;;;13.38;9.10;;;;;;;23.08;95.39;99593.44;2627558;54;20014;-67
2021/08/18 01:48:08;;;;;;;13.82;9.27;;;;;;;22.94;96.49;99587.78;2627409;54;20029;-69
2021/08/18 01:50:36;;;;;;;9.77;8.77;;;;;;;22.79;98.08;99589.09;2627316;54;20006;-68
2021/08/18 01:53:03;;;;;;;12.88;9.35;;;;;;;22.78;98.04;99580.47;2625796;54;20054;-70
2021/08/18 01:55:30;;;;;;;12.00;9.52;;;;;;;22.77;98.38;99575.44;2624967;54;20030;-66
2021/08/18 01:57:57;;;;;;;12.55;9.32;;;;;;;22.69;99.09;99575.25;2626081;54;20006;-69
2021/08/18 02:00:25;;;;;;;12.48;8.98;;;;;;;22.69;98.80;99578.69;2626018;47;20010;-67
2021/08/18 02:02:51;;;;;;;11.50;9.48;;;;;;;22.61;99.66;99580.25;2625403;54;20018;-66
2021/08/18 02:05:17;;;;;;;13.73;9.90;;;;;;;22.57;100.00;99573.66;2627894;39;20699;-66
2021/08/18 02:07:44;;;;;;;11.25;9.13;;;;;;;22.58;100.00;99581.34;2625920;54;20002;-71
2021/08/18 02:10:13;;;;;;;14.25;9.93;;;;;;;22.48;100.00;99584.81;2625921;54;20009;-67
2021/08/18 02:12:40;;;;;;;14.30;9.38;;;;;;;22.93;98.69;99588.75;2626169;54;20022;-71
2021/08/18 02:15:16;;;;;;;15.30;9.02;;;;;;;22.92;97.68;99593.09;2625909;54;20018;-70
2021/08/18 02:17:42;;;;;;;11.02;9.20;;;;;;;22.88;97.44;99594.31;2625966;54;20007;-71
2021/08/18 02:20:17;;;;;;;11.93;9.45;;;;;;;22.00;100.00;99592.25;2626826;54;20597;-70
2021/08/18 02:22:44;;;;;;;13.88;9.23;;;;;;;22.18;100.00;99601.94;2627972;39;20414;-72
2021/08/18 02:25:10;;;;;;;12.93;8.80;;;;;;;22.74;96.92;99601.63;2627385;54;20003;-69
2021/08/18 02:27:38;;;;;;;13.07;8.75;;;;;;;22.52;97.97;99593.97;2627115;47;20015;-70
2021/08/18 02:30:05;;;;;;;14.18;9.02;;;;;;;22.25;99.20;99591.88;2626655;54;20034;-71
2021/08/18 02:32:31;;;;;;;11.25;8.65;;;;;;;22.30;99.26;99600.13;2626139;47;20003;-69
2021/08/18 02:34:57;;;;;;;12.98;9.60;;;;;;;22.48;98.12;99600.34;2626531;54;20026;-68
2021/08/18 02:37:23;;;;;;;15.88;9.52;;;;;;;22.22;100.00;99595.53;2625810;47;20015;-70
2021/08/18 02:39:49;;;;;;;11.93;9.82;;;;;;;22.36;99.20;99597.00;2625694;54;20037;-68
2021/08/18 02:42:16;;;;;;;10.65;9.52;;;;;;;22.20;100.00;99592.28;2624526;47;20502;-69
2021/08/18 02:44:42;;;;;;;14.48;9.40;;;;;;;22.30;99.75;99592.34;2625823;39;20438;-70
2021/08/18 02:47:08;;;;;;;13.23;9.95;;;;;;;22.43;99.29;99598.97;2625554;47;20640;-69
2021/08/18 02:49:34;;;;;;;13.23;9.07;;;;;;;22.62;97.99;99598.28;2626787;54;20014;-68
2021/08/18 02:52:00;;;;;;;11.70;9.45;;;;;;;22.09;100.00;99600.09;2626649;39;20419;-69
2021/08/18 02:54:26;;;;;;;12.50;9.38;;;;;;;22.12;100.00;99599.84;2626445;54;20003;-70
2021/08/18 02:56:52;;;;;;;12.55;9.90;;;;;;;22.55;98.06;99597.13;2626311;47;20003;-71
2021/08/18 02:59:29;;;;;;;15.40;10.77;;;;;;;21.70;100.00;99602.44;2628744;39;20414;-68
2021/08/18 03:01:57;;;;;;;17.42;11.38;;;;;;;21.99;99.09;99611.31;2626992;47;19998;-69
2021/08/18 03:04:23;;;;;;;12.88;10.70;;;;;;;22.03;98.41;99604.94;2627720;54;20014;-69
2021/08/18 03:06:49;;;;;;;18.77;11.32;;;;;;;21.90;97.76;99601.69;2627352;54;20010;-69
2021/08/18 03:09:15;;;;;;;15.02;11.30;;;;;;;21.85;98.48;99606.44;2626665;54;20542;-67
2021/08/18 03:11:40;;;;;;;16.52;11.80;;;;;;;21.65;99.06;99612.34;2627772;54;20015;-72
2021/08/18 03:14:08;;;;;;;15.40;11.52;;;;;;;21.73;98.23;99618.53;2628233;39;20428;-70
2021/08/18 03:16:34;;;;;;;13.63;11.68;;;;;;;21.66;98.95;99617.41;2627387;47;20003;-70
2021/08/18 03:19:00;;;;;;;16.63;11.10;;;;;;;21.69;99.11;99626.69;2629075;39;20425;-70
2021/08/18 03:21:26;;;;;;;15.50;11.32;;;;;;;21.58;98.66;99630.13;2627541;54;20006;-69
2021/08/18 03:23:52;;;;;;;16.42;11.18;;;;;;;21.54;98.63;99620.94;2626703;54;20003;-69
2021/08/18 03:26:19;;;;;;;16.00;11.63;;;;;;;21.31;100.00;99627.09;2627459;47;20001;-69
2021/08/18 03:33:41;;;;;;;15.32;10.80;;;;;;;21.60;100.00;99623.06;2625609;54;20057;-70
2021/08/18 03:36:07;;;;;;;12.68;10.07;;;;;;;21.97;97.62;99623.56;2627985;47;20022;-70
2021/08/18 03:38:37;;;;;;;13.48;10.93;;;;;;;21.96;98.36;99627.94;2632655;39;20418;-69
2021/08/18 03:43:32;;;;;;;13.65;10.35;;;;;;;22.39;96.49;99620.06;2628771;54;20018;-69
2021/08/18 03:46:00;;;;;;;14.40;10.55;;;;;;;22.46;97.23;99623.00;2629340;54;20015;-70
2021/08/18 03:48:26;;;;;;;13.30;9.75;;;;;;;22.48;98.09;99631.47;2627567;54;20018;-69
2021/08/18 03:55:50;;;;;;;18.50;11.30;;;;;;;22.20;99.95;99627.72;2626453;54;20022;-70
2021/08/18 03:58:17;;;;;;;15.23;11.82;;;;;;;21.45;100.00;99644.97;2628540;54;20010;-70
2021/08/18 04:00:45;;;;;;;17.88;11.13;;;;;;;21.75;100.00;99639.94;2627502;46;20038;-70
2021/08/18 04:03:10;;;;;;;14.43;10.63;;;;;;;23.22;94.71;99637.19;2628219;47;20002;-72
2021/08/18 04:05:36;;;;;;;16.48;11.82;;;;;;;22.54;98.79;99644.72;2627344;54;19991;-69
2021/08/18 04:13:07;;;;;;;14.85;10.85;;;;;;;23.11;95.59;99645.09;2603383;54;20456;31
2021/08/18 04:15:39;;;;;;;18.00;12.25;;;;;;;22.77;96.44;99655.81;2624113;39;20935;-69
2021/08/18 04:23:05;;;;;;;15.00;10.55;;;;;;;22.71;98.34;99659.75;2710189;39;20326;31
2021/08/18 04:53:11;;;;;;;16.65;12.50;;;;;;;22.85;99.77;99703.50;2628395;54;20050;-71
2021/08/18 04:55:39;;;;;;;24.48;17.05;;;;;;;22.99;98.99;99704.94;2629058;39;20450;-75
2021/08/18 04:58:05;;;;;;;26.73;20.38;;;;;;;22.82;100.00;99706.31;2628645;39;20395;-71
2021/08/18 05:00:31;;;;;;;21.88;19.08;;;;;;;23.34;97.65;99709.78;2628221;46;20014;-71
2021/08/18 05:02:58;;;;;;;22.77;17.98;;;;;;;23.29;97.47;99713.53;2627784;54;20011;-70
2021/08/18 05:05:24;;;;;;;22.17;18.50;;;;;;;23.40;97.01;99715.28;2628039;54;20022;-72
2021/08/18 05:07:51;;;;;;;20.08;15.18;;;;;;;23.65;95.10;99714.00;2627880;54;20538;-71
2021/08/18 05:10:18;;;;;;;19.15;13.82;;;;;;;23.44;95.97;99715.81;2627938;54;20010;-74
2021/08/18 05:12:44;;;;;;;18.52;13.90;;;;;;;23.62;94.87;99715.09;2628940;39;20734;-68
2021/08/18 05:15:10;;;;;;;18.45;13.10;;;;;;;23.60;94.97;99726.53;2627829;46;20011;-70
2021/08/18 05:17:36;;;;;;;20.05;12.85;;;;;;;23.56;95.66;99720.81;2630546;39;20437;-72
2021/08/18 05:20:05;;;;;;;16.58;12.68;;;;;;;23.62;95.02;99733.25;2626137;47;19999;-74
2021/08/18 05:22:31;;;;;;;18.30;12.50;;;;;;;23.79;94.87;99740.41;2626588;54;20006;-72
2021/08/18 05:24:57;;;;;;;13.73;11.43;;;;;;;24.03;92.81;99727.94;2627065;47;20558;-68
2021/08/18 05:27:24;;;;;;;17.10;12.35;;;;;;;23.83;94.43;99734.00;2628783;54;20013;-67
2021/08/18 05:29:52;;;;;;;15.10;11.43;;;;;;;24.32;92.23;99738.38;2629334;54;20007;-68
2021/08/18 05:32:18;;;;;;;14.75;11.68;;;;;;;24.41;92.01;99741.91;2629348;54;20006;-69
2021/08/18 05:34:43;;;;;;;14.68;10.82;;;;;;;24.37;92.29;99735.34;2628772;46;20031;-70
2021/08/18 05:37:11;;;;;;;14.93;11.13;;;;;;;24.36;91.68;99728.53;2629860;54;20561;-71
2021/08/18 05:39:38;;;;;;;15.55;10.38;;;;;;;24.80;90.19;99738.38;2630989;54;19991;-69
2021/08/18 05:42:12;;;;;;;17.48;10.98;;;;;;;24.88;89.34;99743.69;2675410;31;20549;-69
2021/08/18 05:44:41;;;;;;;17.00;12.15;;;;;;;25.02;88.93;99750.28;2628833;47;20030;-70
2021/08/18 05:47:12;;;;;;;16.10;11.07;;;;;;;24.77;89.54;99762.06;2628279;47;20633;-68
2021/08/18 05:49:38;;;;;;;15.48;11.25;;;;;;;24.32;92.32;99756.56;2629501;54;20033;-70
2021/08/18 05:52:04;;;;;;;14.43;11.13;;;;;;;24.67;90.67;99761.22;2628655;54;20030;-68
2021/08/18 05:54:29;;;;;;;13.73;10.98;;;;;;;25.55;86.31;99759.97;2628608;31;20535;-69
2021/08/18 05:56:55;;;;;;;13.00;10.63;;;;;;;25.36;86.49;99757.44;2627508;47;20029;-68
2021/08/18 05:59:25;;;;;;;14.25;11.07;;;;;;;25.24;87.81;99766.38;2628017;54;20002;-68
2021/08/18 06:01:51;;;;;;;13.45;10.68;;;;;;;25.70;85.58;99769.00;2627827;54;20018;-72
2021/08/18 06:04:17;;;;;;;12.07;10.35;;;;;;;25.72;84.91;99766.22;2627589;54;20535;-69
2021/08/18 06:06:42;;;;;;;17.40;10.63;;;;;;;26.12;83.82;99764.13;2627666;54;20003;-68
2021/08/18 06:09:08;;;;;;;13.85;10.90;;;;;;;25.83;84.70;99765.22;2627329;54;20030;-69
2021/08/18 06:11:34;;;;;;;14.32;11.55;;;;;;;25.99;83.64;99762.81;2626841;54;20798;-69
2021/08/18 06:14:01;;;;;;;14.88;10.38;;;;;;;25.59;85.21;99763.16;2626341;54;20007;-72
2021/08/18 06:16:27;;;;;;;16.95;9.70;;;;;;;26.78;79.86;99759.38;2626019;54;20029;-70
2021/08/18 06:18:53;;;;;;;13.18;8.90;;;;;;;26.64;79.99;99752.09;2624480;54;20058;-68
2021/08/18 06:21:19;;;;;;;14.80;9.52;;;;;;;26.64;79.67;99741.66;2625327;54;20007;-68
2021/08/18 06:23:47;;;;;;;9.77;8.55;;;;;;;26.95;79.52;99742.88;2626304;54;20033;-68
2021/08/18 06:26:13;;;;;;;9.98;8.27;;;;;;;27.00;78.13;99745.03;2626168;54;20018;-69
2021/08/18 06:28:39;;;;;;;14.15;9.60;;;;;;;25.89;83.56;99739.38;2625700;54;20534;-68
2021/08/18 06:31:06;;;;;;;11.05;8.07;;;;;;;25.62;84.81;99735.03;2624471;47;20003;-72
2021/08/18 06:33:33;;;;;;;11.77;8.63;;;;;;;25.51;85.90;99744.81;2626463;54;20136;-68
2021/08/18 06:36:00;;;;;;;12.80;8.65;;;;;;;25.73;84.58;99736.63;2626150;54;20017;-70
2021/08/18 06:38:32;;;;;;;9.98;8.63;;;;;;;25.46;86.67;99731.38;2626250;54;20089;-72
2021/08/18 06:40:58;;;;;;;12.75;8.93;;;;;;;25.77;84.85;99722.31;2626098;47;20011;-70
2021/08/18 06:43:24;;;;;;;13.23;9.25;;;;;;;25.68;84.95;99716.22;2626410;54;20034;-69
2021/08/18 06:45:50;;;;;;;14.30;9.18;;;;;;;25.69;84.87;99698.81;2626149;54;20063;-68
2021/08/18 06:48:17;;;;;;;17.98;8.95;;;;;;;25.60;85.31;99695.28;2626287;54;20007;-67
2021/08/18 07:01:05;;;;;;;9.57;8.30;;;;;;;25.33;84.53;99679.63;2624934;54;20807;-67
2021/08/18 07:03:31;;;;;;;10.95;8.57;;;;;;;25.38;85.23;99685.22;2624960;54;20134;-69
2021/08/18 07:05:57;;;;;;;11.82;7.72;;;;;;;25.42;84.66;99685.75;2627681;54;20030;-68
2021/08/18 07:08:22;;;;;;;11.88;8.10;;;;;;;25.56;83.96;99691.31;2626463;54;20530;-68
2021/08/18 07:10:51;;;;;;;13.20;7.85;;;;;;;25.84;82.29;99694.72;2626078;47;20617;-70
2021/08/18 07:13:18;;;;;;;13.05;7.90;;;;;;;25.84;83.12;99702.53;2627108;54;20018;-68
2021/08/18 07:15:47;;;;;;;9.23;7.60;;;;;;;25.76;83.95;99705.06;2626088;47;20003;-67
2021/08/18 07:18:13;;;;;;;10.32;8.30;;;;;;;25.78;83.42;99706.56;2626425;47;20013;-68
2021/08/18 07:20:41;;;;;;;10.82;8.02;;;;;;;25.71;81.49;99702.09;2627906;39;20481;-68
2021/08/18 07:23:06;;;;;;;12.93;7.85;;;;;;;25.79;82.00;99705.59;2626504;47;20009;-69
2021/08/18 07:25:32;;;;;;;12.73;7.82;;;;;;;25.79;81.83;99702.97;2627765;39;20419;-67
2021/08/18 07:27:58;;;;;;;10.85;7.93;;;;;;;25.83;80.49;99694.88;2626355;54;20018;-68
2021/08/18 07:30:24;;;;;;;9.35;7.57;;;;;;;25.93;80.56;99700.84;2625842;47;20031;-69
2021/08/18 07:32:53;;;;;;;11.13;7.85;;;;;;;25.90;79.94;99701.13;2626823;54;20006;-70
2021/08/18 07:35:20;;;;;;;19.13;10.68;;;;;;;26.21;78.32;99699.84;2626745;54;20030;-67
2021/08/18 07:37:48;;;;;;;11.48;8.30;;;;;;;26.47;76.19;99696.34;2626973;54;20011;-68
2021/08/18 07:40:15;;;;;;;10.18;7.50;;;;;;;26.29;76.74;99697.31;2626865;47;20027;-68
2021/08/18 07:42:40;;;;;;;18.45;7.30;;;;;;;26.32;76.99;99700.47;2625770;47;20010;-68
2021/08/18 07:45:07;;;;;;;10.82;7.38;;;;;;;26.38;76.54;99699.88;2629379;39;20432;-70
2021/08/18 07:47:34;;;;;;;9.20;7.53;;;;;;;26.66;76.11;99702.34;2627341;54;20003;-68
2021/08/18 07:49:59;;;;;;;11.25;7.85;;;;;;;27.10;74.40;99707.41;2628093;54;20006;-66
2021/08/18 07:52:30;;;;;;;12.65;8.10;;;;;;;26.59;75.23;99702.13;2627125;46;20009;-68
2021/08/18 07:54:55;;;;;;;12.35;7.82;;;;;;;27.06;72.29;99708.69;2627623;54;20047;-69
2021/08/18 07:57:21;;;;;;;9.10;7.38;;;;;;;27.23;72.08;99707.81;2627517;54;20015;-71
2021/08/18 08:04:40;;;;;;;12.85;7.88;;;;;;;27.74;69.39;99713.94;2625349;54;20078;-68
2021/08/18 08:07:06;;;;;;;10.27;7.40;;;;;;;27.67;70.60;99713.75;2626422;54;20030;-69
2021/08/18 08:09:31;;;;;;;10.77;7.75;;;;;;;28.05;67.18;99718.44;2627203;54;19999;-68
2021/08/18 08:11:57;;;;;;;10.63;7.32;;;;;;;28.12;66.75;99709.00;2626723;54;20555;-67
2021/08/18 08:14:23;;;;;;;12.75;7.60;;;;;;;28.42;63.17;99706.72;2626607;54;20002;-67
2021/08/18 08:16:49;;;;;;;8.38;7.00;;;;;;;28.42;63.84;99711.97;2627145;54;20023;-67
2021/08/18 08:19:15;;;;;;;12.95;7.22;;;;;;;28.28;64.63;99700.34;2626862;54;20091;-67
2021/08/18 08:21:41;;;;;;;10.65;7.50;;;;;;;28.48;63.85;99706.09;2625961;54;20074;-67
2021/08/18 08:24:07;;;;;;;9.18;7.25;;;;;;;27.90;64.02;99700.91;2624787;47;20061;-68
2021/08/18 08:26:34;;;;;;;11.63;7.38;;;;;;;28.08;64.92;99707.69;2627309;54;20543;-68
2021/08/18 08:28:59;;;;;;;12.80;7.40;;;;;;;28.61;61.74;99709.03;2627541;47;20007;-70
2021/08/18 08:31:25;;;;;;;11.52;7.00;;;;;;;28.61;59.78;99698.56;2632890;39;20463;-69
2021/08/18 08:33:51;;;;;;;9.48;6.95;;;;;;;28.18;60.15;99697.91;2628904;39;20444;-68
2021/08/18 08:36:18;;;;;;;8.35;6.90;;;;;;;29.04;58.54;99698.19;2628054;54;20058;-73
2021/08/18 08:38:44;;;;;;;9.77;7.35;;;;;;;28.86;58.80;99698.38;2627805;54;20017;-68
2021/08/18 08:41:09;;;;;;;9.30;7.40;;;;;;;28.55;59.41;99694.00;2628070;54;20003;-69
2021/08/18 08:43:40;;;;;;;10.68;6.97;;;;;;;28.83;58.77;99690.88;2627210;46;20550;-71
2021/08/18 08:46:06;;;;;;;10.57;7.05;;;;;;;29.38;58.79;99690.06;2626832;46;20018;-68
2021/08/18 08:48:33;;;;;;;9.35;7.10;;;;;;;29.94;55.81;99689.81;2625805;54;20015;-67
2021/08/18 08:51:02;;;;;;;10.57;7.30;;;;;;;30.11;55.85;99693.19;2625552;54;20087;-69
2021/08/18 08:53:29;;;;;;;10.40;7.43;;;;;;;30.41;55.24;99681.78;2625396;47;19999;-67
2021/08/18 08:55:55;;;;;;;10.30;7.68;;;;;;;30.10;56.32;99689.72;2625672;54;20006;-73
2021/08/18 08:58:20;;;;;;;10.70;7.90;;;;;;;29.52;56.93;99678.88;2625558;31;20486;-72
2021/08/18 09:00:48;;;;;;;11.73;8.00;;;;;;;28.93;60.72;99674.97;2626102;54;20591;-68
2021/08/18 09:03:24;;;;;;;8.40;7.43;;;;;;;28.93;58.89;99669.72;2624538;54;20114;-67
2021/08/18 09:08:52;;;;;;;12.05;7.70;;;;;;;28.90;58.58;99676.13;2625334;54;20046;-71
2021/08/18 09:11:20;;;;;;;9.73;7.90;;;;;;;29.45;57.23;99680.56;2626215;54;20034;-68
2021/08/18 09:13:48;;;;;;;13.07;7.70;;;;;;;29.18;58.57;99678.38;2627331;39;20430;-69
2021/08/18 09:16:16;;;;;;;11.20;7.45;;;;;;;29.05;58.49;99679.69;2625606;54;20007;-67
2021/08/18 09:18:53;;;;;;;11.90;7.15;;;;;;;28.49;59.33;99684.16;2624607;47;20013;-69
2021/08/18 09:21:29;;;;;;;10.07;7.43;;;;;;;28.38;61.05;99680.09;2624124;54;20013;-67
2021/08/18 09:24:16;;;;;;;11.02;8.15;;;;;;;28.77;60.38;99678.44;2623301;47;20013;-67
2021/08/18 09:26:51;;;;;;;12.40;7.65;;;;;;;28.24;61.75;99670.28;2623553;54;20029;-66
2021/08/18 09:29:44;;;;;;;10.57;7.43;;;;;;;28.22;61.89;99680.91;2623485;54;20022;-67
2021/08/18 09:32:31;;;;;;;12.88;8.18;;;;;;;28.56;57.06;99672.91;2623254;47;20002;-70
2021/08/18 09:35:00;;;;;;;12.63;8.88;;;;;;;28.26;56.70;99679.59;2623574;54;20011;-68
2021/08/18 09:37:29;;;;;;;13.18;9.05;;;;;;;28.45;56.36;99677.59;2623829;54;20003;-69
2021/08/18 09:39:56;;;;;;;12.65;8.60;;;;;;;27.97;57.09;99673.19;2624554;39;20485;-69
2021/08/18 09:42:40;;;;;;;14.95;9.07;;;;;;;28.13;56.34;99674.00;2624370;47;20006;-68
2021/08/18 09:45:15;;;;;;;12.43;8.23;;;;;;;27.68;57.68;99677.97;2624182;47;20098;-71
2021/08/18 09:48:06;;;;;;;18.45;8.35;;;;;;;27.39;58.85;99681.78;2625770;54;20054;-68
2021/08/18 09:50:45;;;;;;;11.98;7.80;;;;;;;27.25;59.61;99684.97;2625921;54;20021;-69
2021/08/18 09:53:16;;;;;;;11.52;8.23;;;;;;;27.35;59.67;99684.88;2625124;47;20011;-67
2021/08/18 09:56:14;;;;;;;16.10;8.20;;;;;;;27.89;58.45;99678.38;2623851;47;20003;-67
2021/08/18 09:59:00;;;;;;;11.70;8.15;;;;;;;27.98;58.82;99674.81;2625042;54;20007;-69
2021/08/18 10:01:27;;;;;;;10.27;8.15;;;;;;;27.64;59.83;99674.88;2624453;39;20569;-68
2021/08/18 10:03:53;;;;;;;9.75;7.88;;;;;;;27.80;59.04;99671.47;2624639;54;20031;-69
2021/08/18 10:06:19;;;;;;;13.30;8.52;;;;;;;27.94;57.93;99663.00;2625485;54;20010;-74
2021/08/18 10:19:41;;;;;;;11.90;8.45;;;;;;;30.11;52.20;99670.34;2622839;39;20085;-69
2021/08/18 10:22:07;;;;;;;14.63;8.65;;;;;;;30.52;50.71;99663.84;2622731;54;20026;-69
2021/08/18 10:24:36;;;;;;;10.30;8.10;;;;;;;30.88;47.76;99650.88;2622936;54;20018;-69
2021/08/18 10:27:05;;;;;;;10.88;8.30;;;;;;;30.41;47.58;99659.00;2622801;54;20085;-72
2021/08/18 10:29:33;;;;;;;10.30;8.20;;;;;;;30.96;45.83;99649.97;2623135;54;20014;-68
2021/08/18 10:32:05;;;;;;;13.68;8.40;;;;;;;30.95;46.47;99658.81;2623693;47;20011;-68
2021/08/18 10:34:35;;;;;;;12.68;9.00;;;;;;;30.89;46.19;99659.56;2623504;47;20010;-67
2021/08/18 10:37:07;;;;;;;12.32;8.07;;;;;;;31.28;45.85;99653.00;2623324;47;20009;-69
2021/08/18 10:39:36;;;;;;;14.57;7.90;;;;;;;31.70;44.45;99644.44;2623392;54;20014;-68
2021/08/18 10:42:02;;;;;;;12.95;8.20;;;;;;;31.82;44.10;99648.19;2624201;39;20434;-70
2021/08/18 10:44:45;;;;;;;13.70;8.30;;;;;;;32.54;43.28;99634.91;2622786;47;20026;-67
2021/08/18 10:47:33;;;;;;;13.90;7.97;;;;;;;32.25;42.85;99639.31;2622485;47;20009;-67
2021/08/18 10:50:11;;;;;;;10.85;8.30;;;;;;;31.50;44.13;99638.97;2622722;54;20032;-72
2021/08/18 10:52:37;;;;;;;13.55;8.20;;;;;;;31.93;43.64;99628.53;2623809;54;20011;-68
2021/08/18 10:55:11;;;;;;;10.43;8.25;;;;;;;33.15;41.42;99620.91;2623701;54;20024;-71
2021/08/18 10:57:38;;;;;;;8.48;7.53;;;;;;;32.33;42.96;99625.19;2622975;39;20505;-68
2021/08/18 11:00:23;;;;;;;12.35;8.10;;;;;;;32.14;43.29;99620.59;2624249;54;20010;-70
2021/08/18 11:03:18;;;;;;;10.35;8.05;;;;;;;31.91;42.68;99615.50;2624093;54;20014;-69
2021/08/18 11:05:50;;;;;;;13.70;8.65;;;;;;;31.95;43.52;99610.72;2622877;54;20047;-69
2021/08/18 11:08:23;;;;;;;11.75;7.65;;;;;;;32.60;41.08;99603.38;2624570;54;20015;-69
2021/08/18 11:10:54;;;;;;;14.38;8.45;;;;;;;32.14;42.14;99600.38;2623750;47;20030;-68
2021/08/18 11:13:43;;;;;;;12.35;8.32;;;;;;;33.64;40.71;99595.13;2626160;54;20575;-69
2021/08/18 11:16:23;;;;;;;13.07;8.75;;;;;;;33.59;40.58;99584.38;2624530;47;20046;-67
2021/08/18 11:18:52;;;;;;;10.40;7.97;;;;;;;33.15;41.33;99589.28;2624873;47;20002;-71
2021/08/18 11:34:42;;;;;;;9.57;7.70;;;;;;;31.52;45.21;99562.50;2628808;39;20070;-76
2021/08/18 11:37:12;;;;;;;11.60;7.93;;;;;;;31.77;44.46;99563.78;2627189;54;20026;-74
2021/08/18 11:39:40;;;;;;;10.75;7.70;;;;;;;32.23;43.11;99556.28;2626299;54;20098;-73
2021/08/18 11:42:14;;;;;;;11.77;7.78;;;;;;;32.29;42.43;99550.25;2623687;54;20018;-70
2021/08/18 11:44:42;;;;;;;8.93;7.15;;;;;;;32.38;42.80;99552.56;2624324;54;20003;-69
2021/08/18 11:47:13;;;;;;;12.90;7.53;;;;;;;32.04;43.81;99541.97;2625053;54;20007;-72
2021/08/18 11:49:43;;;;;;;12.07;7.97;;;;;;;33.16;41.62;99553.97;2624760;54;20007;-71
2021/08/18 11:52:15;;;;;;;12.13;7.70;;;;;;;32.88;40.82;99546.13;2623887;47;20007;-70
2021/08/18 11:54:41;;;;;;;10.73;7.63;;;;;;;32.99;41.58;99536.91;2624071;54;20026;-72
2021/08/18 11:57:08;;;;;;;12.85;7.38;;;;;;;33.15;40.74;99539.19;2626370;54;20014;-72
2021/08/18 11:59:36;;;;;;;10.00;7.15;;;;;;;33.17;40.35;99537.16;2626118;54;20213;-71
2021/08/18 12:02:03;;;;;;;9.70;7.35;;;;;;;33.59;38.70;99523.69;2625701;54;20034;-71
2021/08/18 12:04:29;;;;;;;11.60;7.50;;;;;;;33.71;39.10;99531.81;2625512;54;20019;-72
2021/08/18 12:07:10;;;;;;;10.05;7.20;;;;;;;33.28;40.67;99526.84;2624172;54;20011;-69
2021/08/18 12:09:37;;;;;;;;;;;;;;;33.22;38.99;99521.53;2620560;54;20010;-70
2021/08/18 12:12:22;;;;;;;10.25;7.13;;;;;;;34.52;36.95;99510.25;2622214;54;19938;-70
2021/08/18 12:14:52;;;;;;;7.50;6.47;;;;;;;34.36;38.05;99510.66;2620653;54;20003;-73
2021/08/18 12:17:18;;;;;;;11.15;7.25;;;;;;;32.48;38.56;99515.38;2622013;54;20614;-71
2021/08/18 12:19:46;;;;;;;11.77;6.75;;;;;;;33.57;36.50;99509.06;2623720;54;20038;-72
2021/08/18 12:22:17;;;;;;;8.25;6.93;;;;;;;33.58;36.98;99500.94;2624313;39;20473;-71
2021/08/18 12:24:51;;;;;;;10.10;6.47;;;;;;;34.90;35.06;99503.16;2624554;54;20002;-69
2021/08/18 12:27:23;;;;;;;11.40;6.78;;;;;;;34.44;35.90;99499.06;2624016;54;20018;-72
2021/08/18 12:30:09;;;;;;;8.05;6.40;;;;;;;33.65;36.05;99501.78;2623424;47;20621;-70
2021/08/18 12:32:36;;;;;;;8.30;6.50;;;;;;;34.40;33.28;99493.38;2622840;54;20010;-71
2021/08/18 12:42:52;;;;;;;10.32;6.70;;;;;;;35.40;33.31;99488.22;2618954;39;20085;-70
2021/08/18 12:45:24;;;;;;;9.88;6.38;;;;;;;34.98;33.03;99485.47;2620149;54;20055;-70
2021/08/18 12:47:52;;;;;;;8.50;6.28;;;;;;;34.29;35.11;99480.78;2620221;54;20568;-70
2021/08/18 12:50:35;;;;;;;6.75;5.88;;;;;;;35.49;32.61;99481.69;2620966;54;20110;-71
2021/08/18 12:53:03;;;;;;;8.65;6.07;;;;;;;35.28;31.80;99479.38;2622402;46;20095;-71
2021/08/18 12:55:33;;;;;;;8.38;5.80;;;;;;;34.64;32.74;99476.03;2623029;47;20023;-71
2021/08/18 12:58:00;;;;;;;6.80;6.10;;;;;;;34.60;32.96;99474.84;2623403;54;20014;-70
2021/08/18 13:00:27;;;;;;;12.38;5.78;;;;;;;35.15;30.70;99476.00;2622485;54;20530;-71
2021/08/18 13:02:56;;;;;;;9.23;5.80;;;;;;;34.80;31.46;99480.84;2622577;54;20010;-73
2021/08/18 13:05:22;;;;;;;9.10;6.22;;;;;;;35.19;32.30;99475.38;2621613;54;20003;-73
2021/08/18 13:07:49;;;;;;;7.97;6.68;;;;;;;35.02;33.14;99468.16;2621542;47;20009;-71
2021/08/18 13:10:15;;;;;;;8.52;6.45;;;;;;;34.75;33.47;99462.97;2623594;39;20426;-71
2021/08/18 13:12:41;;;;;;;7.65;6.55;;;;;;;35.01;32.83;99456.78;2623352;54;20017;-71
2021/08/18 13:15:09;;;;;;;7.75;6.10;;;;;;;34.91;33.75;99456.38;2623600;54;20011;-71